createdAt,value
2019-01-11T00:00:46.167Z,62.20
2019-01-11T00:03:14.775Z,62.30
2019-01-11T00:05:43.622Z,62.40
2019-01-11T00:08:12.202Z,62.10
2019-01-11T00:10:41.059Z,62.10
2019-01-11T00:13:09.879Z,62.30
2019-01-11T00:15:39.222Z,62.30
2019-01-11T00:18:07.824Z,62.10
2019-01-11T00:20:36.496Z,62.20
2019-01-11T00:23:05.147Z,62.00
2019-01-11T00:25:33.780Z,62.00
2019-01-11T00:28:02.380Z,62.00
2019-01-11T00:30:31.297Z,62.30
2019-01-11T00:33:00.154Z,62.30
2019-01-11T00:35:28.715Z,62.20
2019-01-11T00:37:57.562Z,62.20
2019-01-11T00:40:26.158Z,62.20
2019-01-11T00:42:54.751Z,62.20
2019-01-11T00:45:23.586Z,62.40
2019-01-11T00:47:52.215Z,62.30
2019-01-11T00:50:22.470Z,62.20
2019-01-11T00:52:51.084Z,62.10
2019-01-11T00:55:19.800Z,62.00
2019-01-11T00:57:48.899Z,62.00
2019-01-11T01:00:19.051Z,61.90
2019-01-11T01:02:47.650Z,61.80
2019-01-11T01:05:16.230Z,61.90
2019-01-11T01:07:44.825Z,61.70
2019-01-11T01:10:13.407Z,61.70
2019-01-11T01:12:42.298Z,61.60
2019-01-11T01:15:11.413Z,61.70
2019-01-11T01:17:40.354Z,61.60
2019-01-11T01:20:10.626Z,61.70
2019-01-11T01:22:39.530Z,61.50
2019-01-11T01:25:09.598Z,61.60
2019-01-11T01:27:38.501Z,61.50
2019-01-11T01:30:10.118Z,61.40
2019-01-11T01:32:38.710Z,61.30
2019-01-11T01:35:07.540Z,61.40
2019-01-11T01:37:36.138Z,61.40
2019-01-11T01:40:05.720Z,61.50
2019-01-11T01:42:34.642Z,61.40
2019-01-11T01:45:03.219Z,61.20
2019-01-11T01:47:31.843Z,61.20
2019-01-11T01:50:00.402Z,61.00
2019-01-11T01:52:28.997Z,61.00
2019-01-11T01:54:58.631Z,61.10
2019-01-11T01:57:27.248Z,61.10
2019-01-11T01:59:55.827Z,61.30
2019-01-11T02:02:24.388Z,61.30
2019-01-11T02:04:53.259Z,61.60
2019-01-11T02:07:22.122Z,61.70
2019-01-11T02:09:50.707Z,61.80
2019-01-11T02:12:19.699Z,61.80
2019-01-11T02:14:48.332Z,61.90
2019-01-11T02:17:17.786Z,62.00
2019-01-11T02:19:46.474Z,61.90
2019-01-11T02:22:15.039Z,61.70
2019-01-11T02:24:43.646Z,61.70
2019-01-11T02:27:12.578Z,61.70
2019-01-11T02:29:41.303Z,61.90
2019-01-11T02:32:09.866Z,61.90
2019-01-11T02:34:38.986Z,61.80
2019-01-11T02:37:07.565Z,62.00
2019-01-11T02:39:36.683Z,62.20
2019-01-11T02:42:05.246Z,62.10
2019-01-11T02:44:33.887Z,62.10
2019-01-11T02:47:02.483Z,62.10
2019-01-11T02:49:31.390Z,62.20
2019-01-11T02:52:00.255Z,62.00
2019-01-11T02:54:28.893Z,61.90
2019-01-11T02:56:57.812Z,62.00
2019-01-11T02:59:26.743Z,61.90
2019-01-11T03:01:55.873Z,61.90
2019-01-11T03:04:24.487Z,62.10
2019-01-11T03:06:53.318Z,62.10
2019-01-11T03:09:21.914Z,62.20
2019-01-11T03:11:50.753Z,62.40
2019-01-11T03:14:19.580Z,62.40
2019-01-11T03:16:48.692Z,62.50
2019-01-11T03:19:17.302Z,62.60
2019-01-11T03:21:46.267Z,62.30
2019-01-11T03:24:15.198Z,62.40
2019-01-11T03:26:43.821Z,62.40
2019-01-11T03:29:12.390Z,62.30
2019-01-11T03:31:41.671Z,62.30
2019-01-11T03:34:10.243Z,62.40
2019-01-11T03:36:38.948Z,62.20
2019-01-11T03:39:08.412Z,62.40
2019-01-11T03:41:47.199Z,62.40
2019-01-11T03:44:15.750Z,62.40
2019-01-11T03:46:44.711Z,62.50
2019-01-11T03:49:13.810Z,62.50
2019-01-11T03:51:42.430Z,62.60
2019-01-11T03:54:11.323Z,62.60
2019-01-11T03:56:40.010Z,62.50
2019-01-11T03:59:08.611Z,62.50
2019-01-11T04:01:37.186Z,62.60
2019-01-11T04:04:05.888Z,62.60
2019-01-11T04:06:34.714Z,62.70
2019-01-11T04:09:04.315Z,62.70
2019-01-11T04:11:33.219Z,62.90
2019-01-11T04:14:02.153Z,62.90
2019-01-11T04:16:30.953Z,62.80
2019-01-11T04:19:03.806Z,62.70
2019-01-11T04:21:32.904Z,62.70
2019-01-11T04:24:01.873Z,63.40
2019-01-11T04:26:30.528Z,62.70
2019-01-11T04:28:59.380Z,62.80
2019-01-11T04:31:27.975Z,62.80
2019-01-11T04:33:56.811Z,62.90
2019-01-11T04:36:25.446Z,63.00
2019-01-11T04:38:54.513Z,62.90
2019-01-11T04:41:23.647Z,63.10
2019-01-11T04:43:52.292Z,63.10
2019-01-11T04:46:21.166Z,63.10
2019-01-11T04:48:49.886Z,63.00
2019-01-11T04:51:18.502Z,63.10
2019-01-11T04:53:48.806Z,63.40
2019-01-11T04:56:17.678Z,63.10
2019-01-11T04:58:46.516Z,63.20
2019-01-11T05:01:15.288Z,63.30
2019-01-11T05:03:43.854Z,63.30
2019-01-11T05:06:12.511Z,63.30
2019-01-11T05:08:41.491Z,63.40
2019-01-11T05:11:10.060Z,63.40
2019-01-11T05:13:43.995Z,63.30
2019-01-11T05:16:12.742Z,63.20
2019-01-11T05:18:41.822Z,63.10
2019-01-11T05:21:10.415Z,63.40
2019-01-11T05:23:39.262Z,63.50
2019-01-11T05:26:08.129Z,63.40
2019-01-11T05:28:36.978Z,63.40
2019-01-11T05:31:05.643Z,63.40
2019-01-11T05:33:34.479Z,63.60
2019-01-11T05:36:03.087Z,63.40
2019-01-11T05:38:31.654Z,64.40
2019-01-11T05:41:00.646Z,63.80
2019-01-11T05:43:29.286Z,63.80
2019-01-11T05:45:57.898Z,63.80
2019-01-11T05:48:26.486Z,63.70
2019-01-11T05:50:55.102Z,63.70
2019-01-11T05:53:24.007Z,63.90
2019-01-11T05:55:53.667Z,63.90
2019-01-11T05:58:32.881Z,63.90
2019-01-11T06:01:01.779Z,64.00
2019-01-11T06:03:30.601Z,63.90
2019-01-11T06:05:59.240Z,64.20
2019-01-11T06:08:28.767Z,64.10
2019-01-11T06:10:57.630Z,64.10
2019-01-11T06:13:26.558Z,64.20
2019-01-11T06:15:55.245Z,64.20
2019-01-11T06:18:24.046Z,64.10
2019-01-11T06:20:52.869Z,64.20
2019-01-11T06:23:21.514Z,64.20
2019-01-11T06:25:50.091Z,64.40
2019-01-11T06:28:18.790Z,64.50
2019-01-11T06:30:47.395Z,64.60
2019-01-11T06:33:16.230Z,64.40
2019-01-11T06:35:45.372Z,64.50
2019-01-11T06:38:14.057Z,64.50
2019-01-11T06:40:43.130Z,64.70
2019-01-11T06:43:11.750Z,64.60
2019-01-11T06:45:40.758Z,64.50
2019-01-11T06:48:22.132Z,64.40
2019-01-11T06:50:51.226Z,64.40
2019-01-11T06:53:20.098Z,64.50
2019-01-11T06:55:48.874Z,64.60
2019-01-11T06:58:17.630Z,64.80
2019-01-11T07:00:46.462Z,64.90
2019-01-11T07:03:15.322Z,64.80
2019-01-11T07:05:43.962Z,64.70
2019-01-11T07:08:12.614Z,64.70
2019-01-11T07:10:41.188Z,65.00
2019-01-11T07:13:09.779Z,65.00
2019-01-11T07:15:39.453Z,65.00
2019-01-11T07:18:08.122Z,65.00
2019-01-11T07:20:42.753Z,65.10
2019-01-11T07:23:07.038Z,65.10
2019-01-11T07:25:35.655Z,65.10
2019-01-11T07:28:04.510Z,65.10
2019-01-11T07:30:52.044Z,65.20
2019-01-11T07:33:22.765Z,65.10
2019-01-11T07:35:52.395Z,65.10
2019-01-11T07:38:21.519Z,65.10
2019-01-11T07:40:50.102Z,65.30
2019-01-11T07:43:18.695Z,65.20
2019-01-11T07:45:47.495Z,65.30
2019-01-11T07:48:16.340Z,65.30
2019-01-11T07:50:49.302Z,65.40
2019-01-11T07:53:15.534Z,65.50
2019-01-11T07:55:44.449Z,65.60
2019-01-11T07:58:13.315Z,65.60
2019-01-11T08:00:41.920Z,65.70
2019-01-11T08:03:10.795Z,65.80
2019-01-11T08:05:39.369Z,65.80
2019-01-11T08:08:08.009Z,65.60
2019-01-11T08:10:36.659Z,65.60
2019-01-11T08:13:05.270Z,65.50
2019-01-11T08:15:33.843Z,65.70
2019-01-11T08:18:02.423Z,65.60
2019-01-11T08:20:31.819Z,65.60
2019-01-11T08:23:00.525Z,65.60
2019-01-11T08:25:29.343Z,65.50
2019-01-11T08:27:58.256Z,65.70
2019-01-11T08:30:26.851Z,65.70
2019-01-11T08:32:55.478Z,65.70
2019-01-11T08:35:27.038Z,65.80
2019-01-11T08:37:55.648Z,65.80
2019-01-11T08:40:24.554Z,65.90
2019-01-11T08:42:53.146Z,65.90
2019-01-11T08:45:22.078Z,65.90
2019-01-11T08:47:50.731Z,66.10
2019-01-11T08:50:19.584Z,66.20
2019-01-11T08:52:48.137Z,66.10
2019-01-11T08:55:16.779Z,66.20
2019-01-11T08:57:45.683Z,66.20
2019-01-11T09:00:15.078Z,66.10
2019-01-11T09:02:43.826Z,66.10
2019-01-11T09:05:12.763Z,66.00
2019-01-11T09:07:41.713Z,66.00
2019-01-11T09:10:11.891Z,65.90
2019-01-11T09:12:40.498Z,65.90
2019-01-11T09:15:09.325Z,66.20
2019-01-11T09:17:50.383Z,66.40
2019-01-11T09:20:19.274Z,66.50
2019-01-11T09:22:48.871Z,66.60
2019-01-11T09:25:17.459Z,66.60
2019-01-11T09:27:46.305Z,66.30
2019-01-11T09:30:15.266Z,66.50
2019-01-11T09:32:44.027Z,66.50
2019-01-11T09:35:12.866Z,66.40
2019-01-11T09:37:42.380Z,66.50
2019-01-11T09:40:11.540Z,66.60
2019-01-11T09:42:40.399Z,66.50
2019-01-11T09:45:09.112Z,66.50
2019-01-11T09:47:37.730Z,66.70
2019-01-11T09:50:06.806Z,66.90
2019-01-11T09:52:35.620Z,66.90
2019-01-11T09:55:04.722Z,66.80
2019-01-11T09:57:33.300Z,67.00
2019-01-11T10:00:03.512Z,66.90
2019-01-11T10:02:39.923Z,66.80
2019-01-11T10:05:10.059Z,66.80
2019-01-11T10:07:39.126Z,66.80
2019-01-11T10:10:10.642Z,66.90
2019-01-11T10:12:39.335Z,66.80
2019-01-11T10:15:09.166Z,66.70
2019-01-11T10:17:38.470Z,66.60
2019-01-11T10:20:08.398Z,66.50
2019-01-11T10:22:37.326Z,66.30
2019-01-11T10:25:07.414Z,66.70
2019-01-11T10:27:36.498Z,66.70
2019-01-11T10:30:09.131Z,66.60
2019-01-11T10:32:37.937Z,66.50
2019-01-11T10:35:06.907Z,66.60
2019-01-11T10:37:35.471Z,66.60
2019-01-11T10:40:04.463Z,66.70
2019-01-11T10:42:33.094Z,66.60
2019-01-11T10:45:01.944Z,66.50
2019-01-11T10:47:30.772Z,66.80
2019-01-11T10:49:59.434Z,66.80
2019-01-11T10:52:28.275Z,66.70
2019-01-11T10:54:56.847Z,66.40
2019-01-11T10:57:25.734Z,66.60
2019-01-11T10:59:54.338Z,66.60
2019-01-11T11:02:23.310Z,66.80
2019-01-11T11:04:51.947Z,66.80
2019-01-11T11:07:20.538Z,66.70
2019-01-11T11:09:49.374Z,66.60
2019-01-11T11:12:18.016Z,66.60
2019-01-11T11:14:46.612Z,66.60
2019-01-11T11:17:15.463Z,66.30
2019-01-11T11:19:44.438Z,66.50
2019-01-11T11:22:13.282Z,66.50
2019-01-11T11:24:42.138Z,66.60
2019-01-11T11:27:10.771Z,67.00
2019-01-11T11:29:39.627Z,66.90
2019-01-11T11:32:08.235Z,67.00
2019-01-11T11:34:38.717Z,66.90
2019-01-11T11:37:07.778Z,67.00
2019-01-11T11:39:36.624Z,67.20
2019-01-11T11:42:08.134Z,67.10
2019-01-11T11:44:36.979Z,67.20
2019-01-11T11:47:05.654Z,67.00
2019-01-11T11:49:34.463Z,66.80
2019-01-11T11:52:03.298Z,66.60
2019-01-11T11:54:32.190Z,66.60
2019-01-11T11:57:00.795Z,66.60
2019-01-11T11:59:29.388Z,66.70
2019-01-11T12:01:57.999Z,66.70
2019-01-11T12:04:26.837Z,66.80
2019-01-11T12:06:55.450Z,66.80
2019-01-11T12:09:25.280Z,66.80
2019-01-11T12:11:53.939Z,66.60
2019-01-11T12:14:22.583Z,66.40
2019-01-11T12:16:51.196Z,66.40
2019-01-11T12:19:19.839Z,66.30
2019-01-11T12:21:48.466Z,66.30
2019-01-11T12:24:17.103Z,66.40
2019-01-11T12:26:45.719Z,66.50
2019-01-11T12:29:14.717Z,66.50
2019-01-11T12:31:46.256Z,66.50
2019-01-11T12:34:15.115Z,66.70
2019-01-11T12:36:44.255Z,66.90
2019-01-11T12:39:13.091Z,66.80
2019-01-11T12:41:42.227Z,66.80
2019-01-11T12:44:10.787Z,66.90
2019-01-11T12:46:39.762Z,66.90
2019-01-11T12:49:08.603Z,67.00
2019-01-11T12:51:37.208Z,66.90
2019-01-11T12:54:08.906Z,66.70
2019-01-11T12:56:37.586Z,66.90
2019-01-11T12:59:06.168Z,67.10
2019-01-11T13:01:34.770Z,67.10
2019-01-11T13:04:03.362Z,67.00
2019-01-11T13:06:32.040Z,66.90
2019-01-11T13:09:00.656Z,66.80
2019-01-11T13:11:29.313Z,66.70
2019-01-11T13:13:57.938Z,66.80
2019-01-11T13:16:27.026Z,66.80
2019-01-11T13:18:55.635Z,66.80
2019-01-11T13:21:24.606Z,66.90
2019-01-11T13:23:53.798Z,67.20
2019-01-11T13:26:22.405Z,67.20
2019-01-11T13:28:51.314Z,67.10
2019-01-11T13:31:19.933Z,67.20
2019-01-11T13:33:48.579Z,67.40
2019-01-11T13:36:20.306Z,67.20
2019-01-11T13:38:49.246Z,67.00
2019-01-11T13:41:18.075Z,67.10
2019-01-11T13:43:47.347Z,67.00
2019-01-11T13:46:16.481Z,67.10
2019-01-11T13:48:45.093Z,67.20
2019-01-11T13:51:13.696Z,67.10
2019-01-11T13:53:42.539Z,67.30
2019-01-11T13:56:11.154Z,67.10
2019-01-11T13:58:39.774Z,67.20
2019-01-11T14:01:08.679Z,67.20
2019-01-11T14:03:37.260Z,67.10
2019-01-11T14:06:06.030Z,67.00
2019-01-11T14:08:35.187Z,66.90
2019-01-11T14:11:06.423Z,66.80
2019-01-11T14:13:35.085Z,66.70
2019-01-11T14:16:03.663Z,66.80
2019-01-11T14:18:32.603Z,66.40
2019-01-11T14:21:01.416Z,66.50
2019-01-11T14:23:30.323Z,66.70
2019-01-11T14:25:58.994Z,66.50
2019-01-11T14:28:27.885Z,66.60
2019-01-11T14:30:56.475Z,66.70
2019-01-11T14:33:25.099Z,66.70
2019-01-11T14:35:53.666Z,66.70
2019-01-11T14:38:22.272Z,66.90
2019-01-11T14:40:50.896Z,66.90
2019-01-11T14:43:19.605Z,66.90
2019-01-11T14:45:48.415Z,67.00
2019-01-11T14:48:17.048Z,67.00
2019-01-11T14:50:45.843Z,66.90
2019-01-11T14:53:14.415Z,66.80
2019-01-11T14:55:43.004Z,67.00
2019-01-11T14:58:11.909Z,67.00
2019-01-11T15:00:40.555Z,66.90
2019-01-11T15:03:09.439Z,66.80
2019-01-11T15:05:37.976Z,66.80
2019-01-11T15:08:06.847Z,66.80
2019-01-11T15:10:35.655Z,66.70
2019-01-11T15:13:04.987Z,66.70
2019-01-11T15:15:33.935Z,66.50
2019-01-11T15:18:03.129Z,66.30
2019-01-11T15:20:31.738Z,66.40
2019-01-11T15:23:00.911Z,66.40
2019-01-11T15:25:29.469Z,66.30
2019-01-11T15:27:58.318Z,66.40
2019-01-11T15:30:27.006Z,66.60
2019-01-11T15:32:55.967Z,66.50
2019-01-11T15:35:24.663Z,66.40
2019-01-11T15:37:53.320Z,66.40
2019-01-11T15:40:24.109Z,66.30
2019-01-11T15:42:52.767Z,66.40
2019-01-11T15:45:21.602Z,66.40
2019-01-11T15:47:50.432Z,66.30
2019-01-11T15:50:42.614Z,66.30
2019-01-11T15:53:11.290Z,66.40
2019-01-11T15:55:40.126Z,67.00
2019-01-11T15:58:08.965Z,66.30
2019-01-11T16:00:41.949Z,66.10
2019-01-11T16:03:10.680Z,66.20
2019-01-11T16:05:39.810Z,66.30
2019-01-11T16:08:08.839Z,66.10
2019-01-11T16:10:37.978Z,66.10
2019-01-11T16:13:25.807Z,66.10
2019-01-11T16:16:28.741Z,66.00
2019-01-11T16:18:58.459Z,66.20
2019-01-11T16:21:27.133Z,66.10
2019-01-11T16:23:56.247Z,66.20
2019-01-11T16:26:24.816Z,66.80
2019-01-11T16:28:53.444Z,66.20
2019-01-11T16:31:22.057Z,66.20
2019-01-11T16:33:51.004Z,66.20
2019-01-11T16:36:19.617Z,66.10
2019-01-11T16:38:50.618Z,66.10
2019-01-11T16:41:19.415Z,66.20
2019-01-11T16:43:48.204Z,66.00
2019-01-11T16:46:17.059Z,65.90
2019-01-11T16:48:47.307Z,66.10
2019-01-11T16:51:16.011Z,66.30
2019-01-11T16:53:44.644Z,66.30
2019-01-11T16:56:13.220Z,65.90
2019-01-11T16:58:42.090Z,65.90
2019-01-11T17:01:11.206Z,66.00
2019-01-11T17:03:40.272Z,65.90
2019-01-11T17:06:08.925Z,65.90
2019-01-11T17:08:37.547Z,65.90
2019-01-11T17:11:06.362Z,66.00
2019-01-11T17:13:40.491Z,66.00
2019-01-11T17:16:05.379Z,65.90
2019-01-11T17:18:34.721Z,65.90
2019-01-11T17:21:03.535Z,65.90
2019-01-11T17:23:32.501Z,66.00
2019-01-11T17:26:01.071Z,65.90
2019-01-11T17:28:29.658Z,65.90
2019-01-11T17:30:58.331Z,65.90
2019-01-11T17:33:28.962Z,66.00
2019-01-11T17:35:57.820Z,66.00
2019-01-11T17:38:27.329Z,65.90
2019-01-11T17:40:56.197Z,65.90
2019-01-11T17:43:24.759Z,65.80
2019-01-11T17:45:53.363Z,65.90
2019-01-11T17:48:22.095Z,66.00
2019-01-11T17:50:50.702Z,66.00
2019-01-11T17:53:21.196Z,65.90
2019-01-11T17:55:50.099Z,65.90
2019-01-11T17:58:18.703Z,65.80
2019-01-11T18:00:48.165Z,65.80
2019-01-11T18:03:16.959Z,65.90
2019-01-11T18:05:51.619Z,66.00
2019-01-11T18:08:20.463Z,66.00
2019-01-11T18:10:49.918Z,65.90
2019-01-11T18:13:18.471Z,65.80
2019-01-11T18:15:47.109Z,65.80
2019-01-11T18:18:17.443Z,65.90
2019-01-11T18:20:46.122Z,65.90
2019-01-11T18:23:14.723Z,65.90
2019-01-11T18:25:43.674Z,65.80
2019-01-11T18:28:12.255Z,65.90
2019-01-11T18:30:41.175Z,66.00
2019-01-11T18:33:10.058Z,65.90
2019-01-11T18:35:38.918Z,65.80
2019-01-11T18:38:07.538Z,65.90
2019-01-11T18:40:36.274Z,66.00
2019-01-11T18:43:07.670Z,65.80
2019-01-11T18:45:36.542Z,65.90
2019-01-11T18:48:05.159Z,65.90
2019-01-11T18:50:33.819Z,65.90
2019-01-11T18:53:02.442Z,66.00
2019-01-11T18:55:31.192Z,66.10
2019-01-11T18:57:59.999Z,65.80
2019-01-11T19:00:28.686Z,65.90
2019-01-11T19:02:57.410Z,65.90
2019-01-11T19:05:26.614Z,65.70
2019-01-11T19:07:55.269Z,65.80
2019-01-11T19:10:24.139Z,65.90
2019-01-11T19:12:52.830Z,65.80
2019-01-11T19:15:25.155Z,65.60
2019-01-11T19:17:53.890Z,65.70
2019-01-11T19:20:28.168Z,65.80
2019-01-11T19:22:57.279Z,65.80
2019-01-11T19:25:28.723Z,65.60
2019-01-11T19:27:57.334Z,65.50
2019-01-11T19:30:27.871Z,65.50
2019-01-11T19:32:56.557Z,65.40
2019-01-11T19:35:25.674Z,65.60
2019-01-11T19:37:57.236Z,65.60
2019-01-11T19:40:34.784Z,65.40
2019-01-11T19:43:03.947Z,65.40
2019-01-11T19:45:35.614Z,65.30
2019-01-11T19:48:07.093Z,65.60
2019-01-11T19:50:37.181Z,65.70
2019-01-11T19:53:07.154Z,65.60
2019-01-11T19:55:38.672Z,65.60
2019-01-11T19:58:08.789Z,65.70
2019-01-11T20:00:38.342Z,65.80
2019-01-11T20:03:11.274Z,65.80
2019-01-11T20:05:42.955Z,65.90
2019-01-11T20:08:15.945Z,65.80
2019-01-11T20:10:45.796Z,65.80
2019-01-11T20:13:15.448Z,65.70
2019-01-11T20:15:48.044Z,65.60
2019-01-11T20:18:27.576Z,65.40
2019-01-11T20:20:57.406Z,65.50
2019-01-11T20:23:34.646Z,65.50
2019-01-11T20:26:00.633Z,65.30
2019-01-11T20:28:29.290Z,65.60
2019-01-11T20:31:02.959Z,65.70
2019-01-11T20:33:37.730Z,65.60
2019-01-11T20:36:07.817Z,65.60
2019-01-11T20:38:39.871Z,65.60
2019-01-11T20:41:09.200Z,65.70
2019-01-11T20:43:40.536Z,65.60
2019-01-11T20:46:11.228Z,65.60
2019-01-11T20:48:41.839Z,66.20
2019-01-11T20:51:13.413Z,65.80
2019-01-11T20:53:42.567Z,65.60
2019-01-11T20:56:19.571Z,65.50
2019-01-11T20:58:51.930Z,65.40
2019-01-11T21:01:21.265Z,65.60
2019-01-11T21:03:52.274Z,65.60
2019-01-11T21:06:22.115Z,65.70
2019-01-11T21:09:08.616Z,65.60
2019-01-11T21:11:38.202Z,65.60
2019-01-11T21:14:07.676Z,66.00
2019-01-11T21:16:38.370Z,65.80
2019-01-11T21:19:07.903Z,65.80
2019-01-11T21:21:37.304Z,65.80
2019-01-11T21:24:07.381Z,65.80
2019-01-11T21:26:36.276Z,65.90
2019-01-11T21:29:05.351Z,65.80
2019-01-11T21:31:33.975Z,65.80
2019-01-11T21:34:05.882Z,65.80
2019-01-11T21:36:41.703Z,65.70
2019-01-11T21:39:11.056Z,65.60
2019-01-11T21:41:39.696Z,65.70
2019-01-11T21:44:08.425Z,65.70
2019-01-11T21:46:37.054Z,65.80
2019-01-11T21:49:05.812Z,65.70
2019-01-11T21:51:37.962Z,65.90
2019-01-11T21:54:07.258Z,65.70
2019-01-11T21:56:37.410Z,65.60
2019-01-11T21:59:07.018Z,65.70
2019-01-11T22:01:35.611Z,65.70
2019-01-11T22:04:08.827Z,65.50
2019-01-11T22:06:37.943Z,65.80
2019-01-11T22:09:19.144Z,65.80
2019-01-11T22:11:48.247Z,65.90
2019-01-11T22:14:17.146Z,65.80
2019-01-11T22:16:46.418Z,66.00
2019-01-11T22:19:15.282Z,66.00
2019-01-11T22:21:44.046Z,65.90
2019-01-11T22:24:12.934Z,65.60
2019-01-11T22:26:41.527Z,65.80
2019-01-11T22:29:11.134Z,65.80
2019-01-11T22:31:40.344Z,65.60
2019-01-11T22:34:09.794Z,65.80
2019-01-11T22:36:39.238Z,65.70
2019-01-11T22:39:08.522Z,65.60
2019-01-11T22:41:40.120Z,65.70
2019-01-11T22:44:09.170Z,65.70
2019-01-11T22:46:37.770Z,65.80
2019-01-11T22:49:06.746Z,65.80
2019-01-11T22:51:35.542Z,65.60
2019-01-11T22:54:10.208Z,65.80
2019-01-11T22:56:35.162Z,65.70
2019-01-11T22:59:03.794Z,65.70
2019-01-11T23:01:39.831Z,65.50
2019-01-11T23:04:08.461Z,65.70
2019-01-11T23:07:14.140Z,65.60
2019-01-11T23:09:50.185Z,65.50
2019-01-11T23:12:31.154Z,65.80
2019-01-11T23:15:00.909Z,65.80
2019-01-11T23:17:39.798Z,65.80
2019-01-11T23:20:12.255Z,65.80
2019-01-11T23:22:41.203Z,65.70
2019-01-11T23:25:13.088Z,65.60
2019-01-11T23:27:42.062Z,65.70
2019-01-11T23:30:14.206Z,65.70
2019-01-11T23:32:43.070Z,65.60
2019-01-11T23:35:13.197Z,65.50
2019-01-11T23:37:42.725Z,65.60
2019-01-11T23:40:15.343Z,65.60
2019-01-11T23:42:44.007Z,65.60
2019-01-11T23:45:13.034Z,65.80
2019-01-11T23:47:41.668Z,65.80
2019-01-11T23:50:12.956Z,65.90
2019-01-11T23:52:41.998Z,65.80
2019-01-11T23:55:16.642Z,65.80
2019-01-11T23:57:47.772Z,65.90
